sensor_id;sensor_type;location;lat;lon;timestamp;temperature;humidity
38866;DHT22;62686;48.984;8.394;2024-03-08T00:41:37;4.80;99.90
38866;DHT22;62686;48.984;8.394;2024-03-08T06:59:23;3.10;99.90
38866;DHT22;62686;48.984;8.394;2024-03-08T07:01:52;3.20;99.90
38866;DHT22;62686;48.984;8.394;2024-03-08T07:22:34;3.60;99.90
38866;DHT22;62686;48.984;8.394;2024-03-08T07:25:07;3.70;99.90
38866;DHT22;62686;48.984;8.394;2024-03-08T07:27:49;3.70;99.90
38866;DHT22;62686;48.984;8.394;2024-03-08T07:33:09;3.80;99.90
38866;DHT22;62686;48.984;8.394;2024-03-08T07:35:39;3.90;99.90
38866;DHT22;62686;48.984;8.394;2024-03-08T07:38:13;3.90;99.90
38866;DHT22;62686;48.984;8.394;2024-03-08T07:40:43;4.00;99.90
38866;DHT22;62686;48.984;8.394;2024-03-08T07:43:14;4.10;99.90
38866;DHT22;62686;48.984;8.394;2024-03-08T07:48:32;4.20;99.90
38866;DHT22;62686;48.984;8.394;2024-03-08T07:51:01;4.20;99.90
38866;DHT22;62686;48.984;8.394;2024-03-08T07:53:38;4.30;99.90
38866;DHT22;62686;48.984;8.394;2024-03-08T07:56:08;4.40;99.90
38866;DHT22;62686;48.984;8.394;2024-03-08T07:58:40;4.50;99.90
38866;DHT22;62686;48.984;8.394;2024-03-08T08:01:16;4.50;99.90
38866;DHT22;62686;48.984;8.394;2024-03-08T08:03:45;4.60;99.90
38866;DHT22;62686;48.984;8.394;2024-03-08T08:06:15;4.70;99.90
38866;DHT22;62686;48.984;8.394;2024-03-08T08:08:45;4.80;99.90
38866;DHT22;62686;48.984;8.394;2024-03-08T08:11:14;4.90;99.90
38866;DHT22;62686;48.984;8.394;2024-03-08T08:13:45;4.90;99.90
38866;DHT22;62686;48.984;8.394;2024-03-08T08:16:14;5.00;99.90
38866;DHT22;62686;48.984;8.394;2024-03-08T08:18:42;5.10;99.90
38866;DHT22;62686;48.984;8.394;2024-03-08T08:21:13;5.20;99.90
38866;DHT22;62686;48.984;8.394;2024-03-08T08:23:46;5.30;99.90
38866;DHT22;62686;48.984;8.394;2024-03-08T08:26:15;5.90;99.90
38866;DHT22;62686;48.984;8.394;2024-03-08T08:28:44;6.10;99.90
38866;DHT22;62686;48.984;8.394;2024-03-08T08:31:13;5.90;99.90
38866;DHT22;62686;48.984;8.394;2024-03-08T08:33:42;5.90;99.90
38866;DHT22;62686;48.984;8.394;2024-03-08T08:36:12;7.10;99.90
38866;DHT22;62686;48.984;8.394;2024-03-08T08:41:20;8.70;99.90
38866;DHT22;62686;48.984;8.394;2024-03-08T08:43:49;8.80;99.90
38866;DHT22;62686;48.984;8.394;2024-03-08T08:46:20;7.70;99.90
38866;DHT22;62686;48.984;8.394;2024-03-08T08:48:49;7.10;99.90
38866;DHT22;62686;48.984;8.394;2024-03-08T08:51:17;7.30;99.90
38866;DHT22;62686;48.984;8.394;2024-03-08T08:53:46;7.50;99.90
38866;DHT22;62686;48.984;8.394;2024-03-08T08:56:16;8.00;99.90
38866;DHT22;62686;48.984;8.394;2024-03-08T08:58:58;7.70;99.90
38866;DHT22;62686;48.984;8.394;2024-03-08T09:01:27;7.30;99.90
38866;DHT22;62686;48.984;8.394;2024-03-08T09:03:56;7.30;99.90
38866;DHT22;62686;48.984;8.394;2024-03-08T09:06:26;7.20;99.90
38866;DHT22;62686;48.984;8.394;2024-03-08T09:08:59;7.20;99.90
38866;DHT22;62686;48.984;8.394;2024-03-08T09:11:32;7.30;99.90
38866;DHT22;62686;48.984;8.394;2024-03-08T09:16:40;7.50;99.90
38866;DHT22;62686;48.984;8.394;2024-03-08T09:24:38;9.00;99.90
38866;DHT22;62686;48.984;8.394;2024-03-08T09:30:19;9.60;99.90
38866;DHT22;62686;48.984;8.394;2024-03-08T09:33:04;9.80;99.90
38866;DHT22;62686;48.984;8.394;2024-03-08T09:38:14;10.40;99.90
38866;DHT22;62686;48.984;8.394;2024-03-08T09:46:14;9.00;99.90
38866;DHT22;62686;48.984;8.394;2024-03-08T09:54:49;8.30;99.90
38866;DHT22;62686;48.984;8.394;2024-03-08T09:57:18;8.00;99.90
38866;DHT22;62686;48.984;8.394;2024-03-08T10:02:46;8.50;99.90
38866;DHT22;62686;48.984;8.394;2024-03-08T10:45:56;7.90;99.90
38866;DHT22;62686;48.984;8.394;2024-03-08T12:02:38;12.60;99.90
38866;DHT22;62686;48.984;8.394;2024-03-08T12:07:56;13.50;99.90
38866;DHT22;62686;48.984;8.394;2024-03-08T12:10:26;14.70;99.90
38866;DHT22;62686;48.984;8.394;2024-03-08T12:12:58;14.80;99.90
38866;DHT22;62686;48.984;8.394;2024-03-08T12:15:28;14.30;99.90
38866;DHT22;62686;48.984;8.394;2024-03-08T12:18:03;14.60;99.90
38866;DHT22;62686;48.984;8.394;2024-03-08T12:23:21;14.40;99.90
38866;DHT22;62686;48.984;8.394;2024-03-08T12:26:09;14.10;99.90
38866;DHT22;62686;48.984;8.394;2024-03-08T12:28:41;13.80;99.90
38866;DHT22;62686;48.984;8.394;2024-03-08T12:31:13;14.50;99.90
38866;DHT22;62686;48.984;8.394;2024-03-08T12:39:24;14.30;99.90
38866;DHT22;62686;48.984;8.394;2024-03-08T16:04:48;10.10;99.90
38866;DHT22;62686;48.984;8.394;2024-03-08T17:35:14;7.80;99.90
38866;DHT22;62686;48.984;8.394;2024-03-08T20:15:38;6.20;99.90
38866;DHT22;62686;48.984;8.394;2024-03-08T20:18:13;6.50;99.90
38866;DHT22;62686;48.984;8.394;2024-03-08T20:20:42;6.50;99.90
38866;DHT22;62686;48.984;8.394;2024-03-08T20:23:15;6.50;99.90
38866;DHT22;62686;48.984;8.394;2024-03-08T20:25:44;6.50;99.90
38866;DHT22;62686;48.984;8.394;2024-03-08T20:28:16;6.50;99.90
38866;DHT22;62686;48.984;8.394;2024-03-08T20:30:47;6.50;99.90
38866;DHT22;62686;48.984;8.394;2024-03-08T20:33:15;6.50;99.90
38866;DHT22;62686;48.984;8.394;2024-03-08T20:35:45;6.40;99.90
38866;DHT22;62686;48.984;8.394;2024-03-08T20:38:16;6.30;99.90
38866;DHT22;62686;48.984;8.394;2024-03-08T20:40:47;6.10;99.90
38866;DHT22;62686;48.984;8.394;2024-03-08T20:43:17;5.90;99.90
38866;DHT22;62686;48.984;8.394;2024-03-08T20:45:49;6.00;99.90
38866;DHT22;62686;48.984;8.394;2024-03-08T20:48:18;5.90;99.90
38866;DHT22;62686;48.984;8.394;2024-03-08T20:50:47;5.90;99.90
38866;DHT22;62686;48.984;8.394;2024-03-08T20:53:19;5.80;99.90
38866;DHT22;62686;48.984;8.394;2024-03-08T20:55:47;6.10;99.90
38866;DHT22;62686;48.984;8.394;2024-03-08T20:58:17;6.10;99.90
38866;DHT22;62686;48.984;8.394;2024-03-08T21:00:50;6.10;99.90
38866;DHT22;62686;48.984;8.394;2024-03-08T21:03:22;6.10;99.90
38866;DHT22;62686;48.984;8.394;2024-03-08T21:05:51;6.20;99.90
38866;DHT22;62686;48.984;8.394;2024-03-08T21:08:21;6.20;99.90
38866;DHT22;62686;48.984;8.394;2024-03-08T21:10:54;6.10;99.90
38866;DHT22;62686;48.984;8.394;2024-03-08T21:13:23;6.20;99.90
38866;DHT22;62686;48.984;8.394;2024-03-08T21:15:54;6.20;99.90
38866;DHT22;62686;48.984;8.394;2024-03-08T21:18:23;6.10;99.90
38866;DHT22;62686;48.984;8.394;2024-03-08T22:10:27;5.90;99.90
38866;DHT22;62686;48.984;8.394;2024-03-08T23:42:27;6.40;99.90
38866;DHT22;62686;48.984;8.394;2024-03-08T23:44:57;6.40;99.90
38866;DHT22;62686;48.984;8.394;2024-03-08T23:47:31;6.40;99.90
38866;DHT22;62686;48.984;8.394;2024-03-08T23:50:24;6.40;99.90
38866;DHT22;62686;48.984;8.394;2024-03-08T23:53:05;6.30;99.90
38866;DHT22;62686;48.984;8.394;2024-03-08T23:55:39;6.30;99.90
38866;DHT22;62686;48.984;8.394;2024-03-08T23:58:11;6.20;99.90
